Time;durP1;ratioP1;P1;durP2;ratioP2;P2;SDS_P1;SDS_P2;PMS_P1;PMS_P2;Temp;Humidity;BMP_temperature;BMP_pressure;BME280_temperature;BME280_humidity;BME280_pressure;Samples;Min_cycle;Max_cycle;Signal;HPM_P1;HPM_P2
2022/01/19 00:00:37;;;;;;;24.23;13.73;;;4.80;99.90;;;;;;5030876;28;20072;-76
2022/01/19 00:03:03;;;;;;;28.67;14.55;;;4.90;99.90;;;;;;5012889;28;20051;-77
2022/01/19 00:05:29;;;;;;;30.55;14.48;;;4.80;99.90;;;;;;5030661;28;20049;-76
2022/01/19 00:07:55;;;;;;;32.88;14.57;;;4.80;99.90;;;;;;5046527;28;20041;-76
2022/01/19 00:10:27;;;;;;;30.20;14.77;;;4.80;99.90;;;;;;5014217;28;20410;-76
2022/01/19 00:12:57;;;;;;;31.73;14.55;;;4.70;99.90;;;;;;5046270;28;20564;-76
2022/01/19 00:15:24;;;;;;;31.88;15.38;;;4.70;99.90;;;;;;5030448;28;20183;-76
2022/01/19 00:17:56;;;;;;;30.08;15.27;;;4.80;99.90;;;;;;5046819;28;20055;-76
2022/01/19 00:20:22;;;;;;;33.50;14.20;;;4.70;99.90;;;;;;5045644;28;20053;-76
2022/01/19 00:22:49;;;;;;;26.02;12.68;;;4.70;99.90;;;;;;5031080;28;20112;-77
2022/01/19 00:25:15;;;;;;;25.52;12.18;;;4.70;99.90;;;;;;5047471;28;20052;-77
2022/01/19 00:27:41;;;;;;;30.13;12.98;;;4.70;99.90;;;;;;5048317;28;20053;-77
2022/01/19 00:30:07;;;;;;;31.30;13.60;;;4.60;99.90;;;;;;5029580;28;20059;-77
2022/01/19 00:32:33;;;;;;;34.80;14.05;;;4.60;99.90;;;;;;5045878;28;20056;-76
2022/01/19 00:34:59;;;;;;;28.33;13.75;;;4.60;99.90;;;;;;5046668;28;20059;-77
2022/01/19 00:37:25;;;;;;;32.20;13.95;;;4.60;99.90;;;;;;5045936;28;20128;-77
2022/01/19 00:39:51;;;;;;;27.63;13.43;;;4.60;99.90;;;;;;5030063;28;20515;-77
2022/01/19 00:42:17;;;;;;;31.80;13.30;;;4.60;99.90;;;;;;5045399;28;20053;-77
2022/01/19 00:44:43;;;;;;;27.55;12.00;;;4.60;99.90;;;;;;5048103;28;20069;-77
2022/01/19 00:47:09;;;;;;;31.60;11.77;;;4.60;99.90;;;;;;5047330;28;20032;-77
2022/01/19 00:49:35;;;;;;;30.92;12.05;;;4.50;99.90;;;;;;5045659;28;20037;-77
2022/01/19 00:52:00;;;;;;;33.78;12.65;;;4.50;99.90;;;;;;5047712;28;20083;-77
2022/01/19 00:54:26;;;;;;;22.98;12.57;;;4.50;99.90;;;;;;5044832;28;20051;-77
2022/01/19 00:56:52;;;;;;;31.20;13.02;;;4.50;99.90;;;;;;5047542;28;20080;-77
2022/01/19 00:59:17;;;;;;;32.30;12.70;;;4.50;99.90;;;;;;5046492;28;20044;-77
2022/01/19 01:01:43;;;;;;;25.42;11.63;;;4.40;99.90;;;;;;5047750;28;20589;-77
2022/01/19 01:04:09;;;;;;;22.90;11.27;;;4.40;99.90;;;;;;5047051;28;20138;-77
2022/01/19 01:06:35;;;;;;;27.35;12.95;;;4.40;99.90;;;;;;5045167;28;20101;-77
2022/01/19 01:09:01;;;;;;;34.35;14.10;;;4.40;99.90;;;;;;5046065;28;20124;-77
2022/01/19 01:11:34;;;;;;;34.03;14.15;;;4.40;99.90;;;;;;5046396;28;20571;-76
2022/01/19 01:16:40;;;;;;;36.15;13.65;;;4.40;99.90;;;;;;5046103;28;20123;-77
2022/01/19 01:19:10;;;;;;;30.67;14.50;;;4.40;99.90;;;;;;5047402;28;20150;-75
2022/01/19 01:21:36;;;;;;;31.60;14.35;;;4.40;99.90;;;;;;5045283;28;20102;-76
2022/01/19 01:24:03;;;;;;;30.85;15.05;;;4.30;99.90;;;;;;5044431;28;20040;-76
2022/01/19 01:26:29;;;;;;;43.88;15.80;;;4.30;99.90;;;;;;5046018;28;20033;-77
2022/01/19 01:28:55;;;;;;;37.25;15.18;;;4.30;99.90;;;;;;5044625;28;20076;-77
2022/01/19 01:31:20;;;;;;;38.47;15.35;;;4.30;99.90;;;;;;5045600;28;20532;-77
2022/01/19 01:33:46;;;;;;;34.50;14.95;;;4.30;99.90;;;;;;5012066;28;20111;-77
2022/01/19 01:36:14;;;;;;;43.00;17.27;;;4.30;99.90;;;;;;5029027;28;20102;-77
2022/01/19 01:38:40;;;;;;;36.25;15.40;;;4.30;99.90;;;;;;5046533;28;20048;-77
2022/01/19 01:41:12;;;;;;;45.90;17.10;;;5.00;99.90;;;;;;5044733;28;20049;-76
2022/01/19 01:43:39;;;;;;;34.33;16.38;;;4.30;99.90;;;;;;5045416;28;20049;-76
2022/01/19 01:46:11;;;;;;;45.10;16.42;;;4.30;99.90;;;;;;5028089;28;20044;-77
2022/01/19 01:48:42;;;;;;;38.25;15.73;;;4.30;99.90;;;;;;5046643;28;20409;-77
2022/01/19 01:53:57;;;;;;;48.72;18.45;;;4.30;99.90;;;;;;5044282;28;20067;-77
2022/01/19 01:56:24;;;;;;;42.45;16.58;;;4.30;99.90;;;;;;5045593;28;20111;-77
2022/01/19 01:58:50;;;;;;;44.17;16.98;;;4.30;99.90;;;;;;5043922;28;20150;-76
2022/01/19 02:01:17;;;;;;;40.85;16.65;;;4.30;99.90;;;;;;5045103;28;20069;-76
2022/01/19 02:03:44;;;;;;;43.60;17.23;;;4.30;99.90;;;;;;5027580;28;20474;-76
2022/01/19 02:08:47;;;;;;;53.65;17.08;;;4.30;99.90;;;;;;5045156;28;20045;-77
2022/01/19 02:21:58;;;;;;;50.35;17.55;;;4.30;99.90;;;;;;5046319;28;20084;-77
2022/01/19 02:24:30;;;;;;;53.38;17.25;;;4.30;99.90;;;;;;5044028;28;20037;-77
2022/01/19 02:27:05;;;;;;;48.35;18.70;;;4.30;99.90;;;;;;5046367;28;20045;-77
2022/01/19 02:40:25;;;;;;;44.40;17.90;;;4.30;99.90;;;;;;5044311;28;20056;-76
2022/01/19 02:43:22;;;;;;;57.90;18.80;;;4.40;99.90;;;;;;5045942;28;20094;-76
2022/01/19 02:51:08;;;;;;;48.50;16.77;;;4.40;99.90;;;;;;5044104;28;20136;-77
2022/01/19 02:53:38;;;;;;;49.70;17.30;;;4.40;99.90;;;;;;5045335;28;20060;-77
2022/01/19 02:56:10;;;;;;;50.10;16.50;;;4.40;99.90;;;;;;5046214;28;20041;-77
2022/01/19 02:58:42;;;;;;;49.53;18.10;;;4.40;99.90;;;;;;5043788;28;20045;-76
2022/01/19 03:09:20;;;;;;;51.75;17.60;;;4.50;99.90;;;;;;5049737;28;20052;-77
2022/01/19 03:11:46;;;;;;;48.08;18.52;;;4.50;99.90;;;;;;5048783;28;20058;-77
2022/01/19 03:14:12;;;;;;;54.08;19.23;;;4.50;99.90;;;;;;5031554;28;20067;-77
2022/01/19 03:16:38;;;;;;;46.78;18.40;;;4.50;99.90;;;;;;5047779;28;20122;-77
2022/01/19 03:19:06;;;;;;;56.72;19.42;;;4.50;99.90;;;;;;5047453;28;20059;-77
2022/01/19 03:21:32;;;;;;;56.72;19.92;;;4.50;99.90;;;;;;5049570;28;20037;-76
2022/01/19 03:23:59;;;;;;;58.33;20.60;;;4.50;99.90;;;;;;5047195;28;20374;-76
2022/01/19 03:26:25;;;;;;;61.40;19.05;;;4.50;99.90;;;;;;5047929;28;20083;-76
2022/01/19 03:28:50;;;;;;;60.05;20.02;;;4.50;99.90;;;;;;5046968;28;20049;-76
2022/01/19 03:31:16;;;;;;;56.40;19.98;;;4.90;99.90;;;;;;5047637;28;20057;-76
2022/01/19 03:33:42;;;;;;;68.38;20.23;;;4.50;99.90;;;;;;5048633;28;20045;-76
2022/01/19 03:36:08;;;;;;;52.50;16.92;;;4.50;99.90;;;;;;5049035;28;20045;-76
2022/01/19 03:38:33;;;;;;;42.38;16.08;;;4.50;99.90;;;;;;5047282;28;20033;-76
2022/01/19 03:40:59;;;;;;;50.08;17.48;;;4.50;99.90;;;;;;5048472;28;20033;-76
2022/01/19 03:43:25;;;;;;;51.20;16.77;;;4.50;99.90;;;;;;5049474;28;20040;-77
2022/01/19 03:45:57;;;;;;;48.65;17.42;;;4.50;99.90;;;;;;5046496;28;20440;-76
2022/01/19 03:48:42;;;;;;;54.37;18.07;;;4.40;99.90;;;;;;5047214;28;20150;-77
2022/01/19 03:51:07;;;;;;;54.47;18.50;;;4.40;99.90;;;;;;5048825;28;20041;-77
2022/01/19 03:53:33;;;;;;;70.35;17.30;;;4.40;99.90;;;;;;5046696;28;20514;-77
2022/01/19 03:55:59;;;;;;;52.85;18.75;;;4.40;99.90;;;;;;5047288;28;20045;-76
2022/01/19 03:58:25;;;;;;;62.40;18.35;;;4.40;99.90;;;;;;5013285;28;20057;-76
2022/01/19 04:00:55;;;;;;;50.88;18.60;;;4.40;99.90;;;;;;5030989;28;20045;-76
2022/01/19 04:03:29;;;;;;;42.00;15.60;;;4.40;99.90;;;;;;5014982;28;20051;-76
2022/01/19 04:06:00;;;;;;;47.15;17.80;;;4.40;99.90;;;;;;5048278;28;20044;-76
2022/01/19 04:08:26;;;;;;;46.60;18.73;;;4.40;99.90;;;;;;5048347;28;20045;-77
2022/01/19 04:10:52;;;;;;;44.83;16.70;;;4.40;99.90;;;;;;5047796;28;20040;-78
2022/01/19 04:13:44;;;;;;;49.33;18.17;;;4.40;99.90;;;;;;5047295;28;20041;-77
2022/01/19 04:16:10;;;;;;;54.08;19.13;;;4.40;99.90;;;;;;5048125;28;20400;-77
2022/01/19 04:18:36;;;;;;;49.85;19.25;;;4.40;99.90;;;;;;5046378;28;20053;-77
2022/01/19 04:21:02;;;;;;;40.70;16.65;;;4.40;99.90;;;;;;5047780;28;20041;-77
2022/01/19 04:23:28;;;;;;;51.90;18.58;;;4.40;99.90;;;;;;5047459;28;20149;-76
2022/01/19 04:25:54;;;;;;;67.03;20.85;;;4.40;99.90;;;;;;5048628;28;20040;-77
2022/01/19 04:28:20;;;;;;;53.25;19.23;;;4.40;99.90;;;;;;5047372;28;20071;-77
2022/01/19 04:30:46;;;;;;;65.25;19.48;;;4.40;99.90;;;;;;5048013;28;20049;-77
2022/01/19 04:33:23;;;;;;;55.58;19.05;;;4.40;99.90;;;;;;5047279;28;20398;-77
2022/01/19 04:35:51;;;;;;;51.97;19.27;;;4.40;99.90;;;;;;5047468;28;20077;-77
2022/01/19 05:07:53;;;;;;;61.83;18.58;;;4.30;99.90;;;;;;5047079;28;20049;-76
2022/01/19 05:15:48;;;;;;;58.38;19.00;;;4.40;99.90;;;;;;5046846;28;20044;-76
2022/01/19 05:18:13;;;;;;;49.15;19.13;;;4.80;99.90;;;;;;5046671;28;20490;-76
2022/01/19 05:20:39;;;;;;;52.30;19.52;;;4.40;99.90;;;;;;5045477;28;20052;-76
2022/01/19 05:23:05;;;;;;;48.88;19.67;;;4.30;99.90;;;;;;5046398;28;20041;-77
2022/01/19 05:25:31;;;;;;;44.53;17.77;;;4.80;99.90;;;;;;5045392;28;20055;-76
2022/01/19 05:27:57;;;;;;;45.40;17.98;;;4.30;99.90;;;;;;5046244;28;20048;-77
2022/01/19 05:30:23;;;;;;;47.72;18.33;;;4.40;99.90;;;;;;5045529;28;20471;-77
2022/01/19 05:32:49;;;;;;;47.00;17.45;;;4.30;99.90;;;;;;5028704;28;20174;-76
2022/01/19 05:35:15;;;;;;;40.78;17.75;;;4.40;99.90;;;;;;5046609;28;20119;-76
2022/01/19 05:37:41;;;;;;;48.72;18.58;;;4.40;99.90;;;;;;5046891;28;20048;-76
2022/01/19 05:40:10;;;;;;;44.92;16.92;;;4.40;99.90;;;;;;5046157;28;20045;-77
2022/01/19 05:42:35;;;;;;;49.30;17.10;;;4.40;99.90;;;;;;5047169;28;20049;-77
2022/01/19 05:45:02;;;;;;;39.47;17.10;;;4.40;99.90;;;;;;5044697;28;20049;-77
2022/01/19 05:47:28;;;;;;;45.38;16.23;;;4.40;99.90;;;;;;5045987;28;20087;-77
2022/01/19 05:49:53;;;;;;;43.67;17.40;;;4.40;99.90;;;;;;5044484;28;20409;-77
2022/01/19 05:52:19;;;;;;;43.60;16.25;;;4.40;99.90;;;;;;5028507;28;20041;-77
2022/01/19 05:54:46;;;;;;;48.30;17.35;;;4.40;99.90;;;;;;5045077;28;20045;-77
2022/01/19 05:57:13;;;;;;;42.85;18.60;;;4.40;99.90;;;;;;5045001;28;20070;-77
2022/01/19 05:59:39;;;;;;;36.67;16.17;;;4.40;99.90;;;;;;5045126;28;20110;-77
2022/01/19 06:02:06;;;;;;;41.55;17.10;;;4.40;99.90;;;;;;5027543;28;20102;-77
2022/01/19 06:04:31;;;;;;;37.05;15.27;;;4.40;99.90;;;;;;5045129;28;20056;-77
2022/01/19 06:07:03;;;;;;;43.00;18.75;;;4.40;99.90;;;;;;5044227;28;20052;-77
2022/01/19 06:12:04;;;;;;;42.75;16.95;;;4.30;99.90;;;;;;5046261;28;20131;-77
2022/01/19 06:14:31;;;;;;;42.47;17.55;;;4.30;99.90;;;;;;5045932;28;20390;-77
2022/01/19 06:16:57;;;;;;;44.42;18.70;;;4.30;99.90;;;;;;5045818;28;20735;-76
2022/01/19 06:19:23;;;;;;;38.45;17.60;;;4.50;99.90;;;;;;5045223;28;20094;-76
2022/01/19 06:21:48;;;;;;;43.78;18.45;;;4.30;99.90;;;;;;5046066;28;20045;-75
2022/01/19 06:24:14;;;;;;;38.33;17.33;;;4.30;99.90;;;;;;5027434;28;20077;-76
2022/01/19 06:26:40;;;;;;;39.15;17.38;;;4.30;99.90;;;;;;5044400;28;20052;-76
2022/01/19 06:29:05;;;;;;;43.28;17.70;;;4.30;99.90;;;;;;5027924;28;20567;-75
2022/01/19 06:31:31;;;;;;;40.70;16.88;;;4.40;99.90;;;;;;5027178;28;20053;-74
2022/01/19 06:33:57;;;;;;;42.00;17.48;;;4.30;99.90;;;;;;5044649;28;20497;-75
2022/01/19 06:36:23;;;;;;;34.22;15.93;;;4.80;99.90;;;;;;5048499;28;20084;-74
2022/01/19 06:38:49;;;;;;;40.92;17.52;;;4.30;99.90;;;;;;5048845;28;20428;-76
2022/01/19 06:41:14;;;;;;;43.55;18.23;;;4.30;99.90;;;;;;5048124;28;20051;-76
2022/01/19 06:43:40;;;;;;;43.80;17.35;;;4.30;99.90;;;;;;5048058;28;20049;-76
2022/01/19 06:46:06;;;;;;;41.00;18.17;;;4.30;99.90;;;;;;5048512;28;20133;-76
2022/01/19 06:48:32;;;;;;;53.72;20.48;;;5.20;99.90;;;;;;5031094;28;20044;-77
2022/01/19 06:50:57;;;;;;;38.88;17.40;;;4.30;99.90;;;;;;5048717;28;20127;-75
2022/01/19 06:53:23;;;;;;;47.15;18.02;;;4.30;99.90;;;;;;5048195;28;20044;-74
2022/01/19 06:55:49;;;;;;;40.00;17.50;;;4.90;99.90;;;;;;5048550;28;20084;-77
2022/01/19 06:58:15;;;;;;;41.65;18.25;;;4.30;99.90;;;;;;5031245;28;20132;-76
2022/01/19 07:00:41;;;;;;;40.45;18.45;;;4.30;99.90;;;;;;5049314;28;20045;-77
2022/01/19 07:03:10;;;;;;;44.20;18.33;;;5.10;99.90;;;;;;5049874;28;20041;-76
2022/01/19 07:05:35;;;;;;;45.63;18.70;;;4.30;99.90;;;;;;5031100;28;20033;-78
2022/01/19 07:08:01;;;;;;;43.47;19.33;;;4.30;99.90;;;;;;5048394;28;20043;-76
2022/01/19 07:10:31;;;;;;;45.25;17.50;;;4.30;99.90;;;;;;5047648;28;20059;-75
2022/01/19 07:13:01;;;;;;;43.80;17.98;;;4.30;99.90;;;;;;5047970;28;20277;-76
2022/01/19 07:15:26;;;;;;;41.38;17.08;;;4.30;99.90;;;;;;5048950;28;20037;-76
2022/01/19 07:17:52;;;;;;;35.85;16.67;;;4.30;99.90;;;;;;5049227;28;20131;-76
2022/01/19 07:20:18;;;;;;;38.63;17.92;;;4.30;99.90;;;;;;5049210;28;20072;-76
2022/01/19 07:22:44;;;;;;;42.53;18.30;;;4.30;99.90;;;;;;5048407;28;20076;-75
2022/01/19 07:25:10;;;;;;;37.15;18.52;;;4.30;99.90;;;;;;5031454;28;20087;-75
2022/01/19 07:27:36;;;;;;;36.03;17.48;;;4.30;99.90;;;;;;5047151;28;20052;-75
2022/01/19 07:30:04;;;;;;;41.67;18.30;;;4.30;99.90;;;;;;5031282;28;20061;-75
2022/01/19 07:32:34;;;;;;;47.17;19.10;;;4.30;99.90;;;;;;5030515;28;20075;-76
2022/01/19 07:35:04;;;;;;;45.08;18.75;;;4.30;99.90;;;;;;5030391;28;20045;-75
2022/01/19 07:37:30;;;;;;;45.05;19.13;;;4.30;99.90;;;;;;5047788;28;20191;-74
2022/01/19 07:39:57;;;;;;;39.47;17.10;;;4.30;99.90;;;;;;5029932;28;20128;-74
2022/01/19 07:42:23;;;;;;;43.60;18.65;;;4.30;99.90;;;;;;5047726;28;20063;-75
2022/01/19 07:44:49;;;;;;;40.88;18.27;;;4.30;99.90;;;;;;5030520;28;20080;-75
2022/01/19 07:47:16;;;;;;;45.85;19.63;;;4.30;99.90;;;;;;5046984;28;20045;-76
2022/01/19 07:49:41;;;;;;;40.20;18.88;;;4.40;99.90;;;;;;5046598;28;20052;-75
2022/01/19 07:52:07;;;;;;;45.05;17.90;;;4.50;99.90;;;;;;5030558;28;20057;-76
2022/01/19 07:54:33;;;;;;;41.05;19.45;;;4.30;99.90;;;;;;5030498;28;20134;-75
2022/01/19 07:56:58;;;;;;;43.28;19.13;;;4.40;99.90;;;;;;5046363;28;20041;-75
2022/01/19 07:59:24;;;;;;;38.53;17.48;;;4.40;99.90;;;;;;5047500;28;20053;-75
2022/01/19 08:01:50;;;;;;;40.53;18.52;;;4.40;99.90;;;;;;5045889;28;20489;-75
2022/01/19 08:04:16;;;;;;;33.80;17.10;;;4.40;99.90;;;;;;5047364;28;20041;-75
2022/01/19 08:06:41;;;;;;;49.95;20.13;;;5.50;99.90;;;;;;5046499;28;20037;-75
2022/01/19 08:09:07;;;;;;;41.50;19.25;;;4.40;99.90;;;;;;5030457;28;20147;-75
2022/01/19 08:11:33;;;;;;;44.13;19.45;;;4.40;99.90;;;;;;5047160;28;20083;-75
2022/01/19 08:13:59;;;;;;;41.65;18.42;;;5.00;99.90;;;;;;5047497;28;20033;-75
2022/01/19 08:16:25;;;;;;;39.75;18.77;;;4.40;99.90;;;;;;5047006;28;20080;-75
2022/01/19 08:18:51;;;;;;;41.97;18.25;;;4.40;99.90;;;;;;5029083;28;20124;-75
2022/01/19 08:21:17;;;;;;;50.17;19.08;;;4.40;99.90;;;;;;5046847;28;20132;-75
2022/01/19 08:23:43;;;;;;;41.10;19.42;;;4.50;99.90;;;;;;5013106;28;20045;-75
2022/01/19 08:26:13;;;;;;;45.90;19.63;;;4.50;99.90;;;;;;5046151;28;20037;-75
2022/01/19 08:28:39;;;;;;;39.70;19.00;;;4.50;99.90;;;;;;5030806;28;20041;-73
2022/01/19 08:31:05;;;;;;;52.30;20.38;;;4.50;99.90;;;;;;5028839;28;20063;-75
2022/01/19 08:33:31;;;;;;;41.15;20.30;;;5.60;99.90;;;;;;5030813;28;20044;-75
2022/01/19 08:35:56;;;;;;;43.03;19.58;;;4.60;99.90;;;;;;5045318;28;20128;-75
2022/01/19 08:38:23;;;;;;;48.00;19.70;;;5.40;99.90;;;;;;5029938;28;20075;-74
2022/01/19 08:40:49;;;;;;;43.97;19.63;;;4.60;99.90;;;;;;5046252;28;20044;-74
2022/01/19 08:43:15;;;;;;;51.28;19.23;;;4.70;99.90;;;;;;5046364;28;20553;-75
2022/01/19 08:45:41;;;;;;;42.38;20.02;;;4.70;99.90;;;;;;5046201;28;20413;-75
2022/01/19 08:48:07;;;;;;;49.22;21.40;;;4.70;99.90;;;;;;5028546;28;20057;-76
2022/01/19 08:50:34;;;;;;;45.80;19.58;;;4.70;99.90;;;;;;5046430;28;20056;-75
2022/01/19 08:53:01;;;;;;;43.25;19.45;;;5.80;99.90;;;;;;5046607;28;20052;-76
2022/01/19 08:55:27;;;;;;;45.33;20.95;;;4.80;99.90;;;;;;5046217;28;20045;-75
2022/01/19 08:57:53;;;;;;;47.38;19.55;;;4.90;99.90;;;;;;5044900;28;20060;-75
2022/01/19 09:00:20;;;;;;;47.83;20.63;;;5.00;99.90;;;;;;5028305;28;20127;-74
2022/01/19 09:02:46;;;;;;;45.58;21.55;;;5.00;99.90;;;;;;5045740;28;20706;-75
2022/01/19 09:05:12;;;;;;;46.42;21.05;;;5.00;99.90;;;;;;5046367;28;20045;-75
2022/01/19 09:07:38;;;;;;;46.28;20.33;;;5.10;99.90;;;;;;5029720;28;20068;-76
2022/01/19 09:10:06;;;;;;;44.63;20.98;;;5.10;99.90;;;;;;5046349;28;20036;-76
2022/01/19 09:12:32;;;;;;;43.25;20.33;;;5.10;99.90;;;;;;5045968;28;20045;-76
2022/01/19 09:14:58;;;;;;;41.13;21.13;;;5.20;99.90;;;;;;5046758;28;20041;-75
2022/01/19 09:17:24;;;;;;;40.20;20.17;;;5.70;99.90;;;;;;5045571;28;20041;-75
2022/01/19 09:19:49;;;;;;;46.55;20.23;;;5.20;99.90;;;;;;5046797;28;20617;-73
2022/01/19 09:22:15;;;;;;;46.33;19.33;;;6.20;99.90;;;;;;5044985;28;20132;-75
2022/01/19 09:24:42;;;;;;;44.13;20.63;;;5.30;99.90;;;;;;5047409;28;20044;-75
2022/01/19 09:27:09;;;;;;;56.42;20.17;;;5.30;99.90;;;;;;5045784;28;20045;-75
2022/01/19 09:29:40;;;;;;;44.40;21.48;;;5.30;99.90;;;;;;5047256;28;20109;-75
2022/01/19 09:32:08;;;;;;;40.65;20.33;;;6.10;99.90;;;;;;5046059;28;20553;-75
2022/01/19 09:34:34;;;;;;;43.00;20.55;;;5.30;99.90;;;;;;5045238;28;20049;-75
2022/01/19 09:37:00;;;;;;;38.85;19.35;;;5.30;99.90;;;;;;5046738;28;20036;-75
2022/01/19 09:39:26;;;;;;;51.47;20.52;;;5.40;99.90;;;;;;5045615;28;20401;-75
2022/01/19 09:41:54;;;;;;;39.88;20.23;;;5.40;99.90;;;;;;5045914;28;20049;-75
2022/01/19 09:44:22;;;;;;;44.78;21.73;;;5.40;99.90;;;;;;5044060;28;20562;-76
2022/01/19 09:46:49;;;;;;;43.10;19.70;;;5.40;99.90;;;;;;5045235;28;20056;-75
2022/01/19 09:49:17;;;;;;;44.80;21.00;;;5.40;99.90;;;;;;5045981;28;20037;-75
2022/01/19 09:51:49;;;;;;;40.05;19.15;;;5.50;99.90;;;;;;5046448;28;20041;-75
2022/01/19 09:54:21;;;;;;;41.17;20.45;;;5.50;99.90;;;;;;5045430;28;20045;-74
2022/01/19 09:56:48;;;;;;;46.50;20.92;;;5.50;99.90;;;;;;5044140;28;20048;-75
2022/01/19 09:59:15;;;;;;;46.88;21.95;;;5.50;99.90;;;;;;5045171;28;20580;-75
2022/01/19 10:01:54;;;;;;;49.50;22.35;;;5.50;99.90;;;;;;5044290;28;20835;-75
2022/01/19 10:04:29;;;;;;;45.05;21.10;;;5.40;99.90;;;;;;5045387;28;20512;-75
2022/01/19 10:07:18;;;;;;;44.58;20.10;;;5.40;99.90;;;;;;5046550;28;20094;-76
2022/01/19 10:09:59;;;;;;;51.50;21.23;;;5.40;99.90;;;;;;5043136;28;20048;-75
2022/01/19 10:18:33;;;;;;;38.75;20.10;;;5.40;99.90;;;;;;5044619;28;20132;-75
2022/01/19 10:21:16;;;;;;;40.67;19.52;;;6.50;99.90;;;;;;5046173;28;20053;-74
2022/01/19 10:23:44;;;;;;;52.70;22.13;;;5.30;99.90;;;;;;5046063;28;20134;-75
2022/01/19 10:26:13;;;;;;;47.95;20.55;;;5.30;99.90;;;;;;5045130;28;20037;-76
2022/01/19 10:29:07;;;;;;;52.00;22.00;;;5.20;99.90;;;;;;5046137;28;20041;-75
2022/01/19 10:31:38;;;;;;;53.70;22.27;;;5.20;99.90;;;;;;5044995;28;20778;-75
2022/01/19 10:34:20;;;;;;;52.63;22.48;;;5.20;99.90;;;;;;5045720;28;20052;-75
2022/01/19 10:36:56;;;;;;;42.78;21.83;;;5.20;99.90;;;;;;5044816;28;20041;-74
2022/01/19 10:39:24;;;;;;;49.22;21.83;;;5.20;99.90;;;;;;5027380;28;20044;-75
2022/01/19 10:42:08;;;;;;;45.20;21.98;;;5.20;99.90;;;;;;5046309;28;20048;-75
2022/01/19 10:44:58;;;;;;;41.45;22.27;;;5.30;99.90;;;;;;5045271;28;20045;-75
2022/01/19 10:47:44;;;;;;;50.10;21.73;;;5.30;99.90;;;;;;5044681;28;20053;-75
2022/01/19 10:50:19;;;;;;;47.20;23.55;;;5.30;99.90;;;;;;5046146;28;20049;-74
2022/01/19 10:52:46;;;;;;;59.92;24.80;;;5.30;99.90;;;;;;5044611;28;20040;-76
2022/01/19 10:55:19;;;;;;;47.55;23.33;;;5.30;99.90;;;;;;5046076;28;20167;-76
2022/01/19 10:57:45;;;;;;;53.90;23.20;;;5.30;99.90;;;;;;5044409;28;20037;-76
2022/01/19 11:00:20;;;;;;;46.35;22.63;;;5.30;99.90;;;;;;5045137;28;20045;-75
2022/01/19 11:02:49;;;;;;;59.92;24.77;;;5.30;99.90;;;;;;5045884;28;20124;-77
2022/01/19 11:05:17;;;;;;;50.55;23.95;;;5.40;99.90;;;;;;5044670;28;20041;-77
2022/01/19 11:07:43;;;;;;;49.72;24.65;;;6.50;99.90;;;;;;5045846;28;20505;-77
2022/01/19 11:10:13;;;;;;;54.40;24.60;;;5.40;99.90;;;;;;5027483;28;20045;-76
2022/01/19 11:12:45;;;;;;;48.38;24.98;;;5.60;99.90;;;;;;5044169;28;20490;-76
2022/01/19 11:15:15;;;;;;;41.63;22.35;;;5.80;99.90;;;;;;5045783;28;20095;-76
2022/01/19 11:17:41;;;;;;;49.55;24.00;;;5.40;99.90;;;;;;5044482;28;20478;-76
2022/01/19 11:20:12;;;;;;;53.75;23.90;;;5.40;99.90;;;;;;5044216;28;20128;-76
2022/01/19 11:23:15;;;;;;;54.47;24.73;;;5.50;99.90;;;;;;5045470;28;20142;-76
2022/01/19 11:26:16;;;;;;;47.50;23.05;;;5.50;99.90;;;;;;5049152;28;20037;-76
2022/01/19 11:28:49;;;;;;;44.25;20.67;;;5.50;99.90;;;;;;5043861;28;20053;-76
2022/01/19 11:31:14;;;;;;;;;;;5.60;99.90;;;;;;5048484;28;20099;-75
2022/01/19 11:33:51;;;;;;;54.08;23.98;;;5.70;99.90;;;;;;5049461;28;19921;-76
2022/01/19 11:36:19;;;;;;;54.10;23.98;;;5.70;99.90;;;;;;5047570;28;20108;-76
2022/01/19 11:38:48;;;;;;;50.67;24.73;;;5.80;99.90;;;;;;5048326;28;20484;-76
2022/01/19 11:41:13;;;;;;;48.58;24.33;;;7.20;99.90;;;;;;5049176;28;20033;-76
2022/01/19 11:43:52;;;;;;;43.50;23.73;;;5.90;99.90;;;;;;5047623;28;20040;-77
2022/01/19 11:46:31;;;;;;;48.17;22.75;;;6.00;99.90;;;;;;5049228;28;20120;-75
2022/01/19 11:49:02;;;;;;;47.95;24.38;;;6.10;99.90;;;;;;5047586;28;20053;-76
2022/01/19 11:51:46;;;;;;;58.75;24.10;;;6.80;99.90;;;;;;5030245;28;20048;-76
2022/01/19 11:54:21;;;;;;;48.38;23.63;;;6.20;99.90;;;;;;5047843;28;20052;-76
2022/01/19 11:56:59;;;;;;;50.30;25.02;;;6.30;99.90;;;;;;5047828;28;20448;-76
2022/01/19 11:59:26;;;;;;;46.58;21.80;;;6.30;99.90;;;;;;5048805;28;20053;-76
2022/01/19 12:01:52;;;;;;;51.00;24.45;;;6.30;99.90;;;;;;5048649;28;20037;-75
2022/01/19 12:04:22;;;;;;;49.15;23.83;;;6.30;99.90;;;;;;5047041;28;20048;-76
2022/01/19 12:06:49;;;;;;;51.28;23.25;;;6.30;99.90;;;;;;5048888;28;20094;-75
2022/01/19 12:09:16;;;;;;;44.63;22.27;;;6.30;99.90;;;;;;5047412;28;20067;-76
2022/01/19 12:11:51;;;;;;;47.25;23.48;;;6.30;99.90;;;;;;5048828;28;20155;-75
2022/01/19 12:14:21;;;;;;;46.25;22.60;;;6.30;99.90;;;;;;5047607;28;20637;-75
2022/01/19 12:17:15;;;;;;;50.67;23.27;;;6.30;99.90;;;;;;5048281;28;20076;-76
2022/01/19 12:19:43;;;;;;;44.15;21.58;;;6.20;99.90;;;;;;5048109;28;20049;-76
2022/01/19 12:22:24;;;;;;;46.08;23.10;;;6.20;99.90;;;;;;5047419;28;20481;-75
2022/01/19 12:25:08;;;;;;;46.65;23.23;;;6.20;99.90;;;;;;5048220;28;20053;-76
2022/01/19 12:27:36;;;;;;;48.33;21.77;;;6.60;99.90;;;;;;5048213;28;20048;-76
2022/01/19 12:30:05;;;;;;;51.67;24.08;;;6.20;99.90;;;;;;5047128;28;20089;-76
2022/01/19 12:32:48;;;;;;;44.28;21.00;;;6.10;99.90;;;;;;5047807;28;20486;-77
2022/01/19 12:35:22;;;;;;;48.83;23.25;;;6.10;99.90;;;;;;5045319;28;20055;-78
2022/01/19 12:37:54;;;;;;;46.13;21.70;;;6.10;99.90;;;;;;5048245;28;20068;-77
2022/01/19 12:40:22;;;;;;;47.75;22.67;;;6.10;99.90;;;;;;5046449;28;20119;-77
2022/01/19 12:42:59;;;;;;;47.38;23.10;;;6.10;99.90;;;;;;5029348;28;20048;-77
2022/01/19 12:45:28;;;;;;;48.33;22.85;;;6.00;99.90;;;;;;5013967;28;20041;-77
2022/01/19 12:47:57;;;;;;;50.97;21.95;;;6.10;99.90;;;;;;5044875;28;20081;-75
2022/01/19 12:50:23;;;;;;;50.28;22.95;;;6.00;99.90;;;;;;5029909;28;20283;-75
2022/01/19 12:52:54;;;;;;;49.85;22.13;;;6.80;99.90;;;;;;5029231;28;20482;-76
2022/01/19 12:55:24;;;;;;;51.65;22.95;;;7.50;99.90;;;;;;5046647;28;20049;-76
2022/01/19 12:57:51;;;;;;;54.35;22.23;;;6.10;99.90;;;;;;5045930;28;20048;-76
2022/01/19 13:00:24;;;;;;;51.45;23.75;;;6.20;99.90;;;;;;5044863;28;20456;-75
2022/01/19 13:02:49;;;;;;;42.17;21.85;;;6.20;99.90;;;;;;5046286;28;20045;-76
2022/01/19 13:05:18;;;;;;;45.95;20.10;;;6.20;99.90;;;;;;5012471;28;20051;-76
2022/01/19 13:07:53;;;;;;;41.70;21.05;;;6.20;99.90;;;;;;5047704;28;20092;-75
2022/01/19 13:13:12;;;;;;;45.10;20.52;;;6.10;99.90;;;;;;5045558;28;20049;-75
2022/01/19 13:15:43;;;;;;;44.05;21.90;;;6.20;99.90;;;;;;5046279;28;20048;-76
2022/01/19 13:18:36;;;;;;;46.10;21.95;;;6.10;99.90;;;;;;5044521;28;20033;-75
2022/01/19 13:21:08;;;;;;;55.85;22.33;;;6.10;99.90;;;;;;5044651;28;20063;-75
2022/01/19 13:23:37;;;;;;;44.75;22.23;;;6.10;99.90;;;;;;5046983;28;20517;-75
2022/01/19 13:26:08;;;;;;;47.78;20.27;;;6.20;99.90;;;;;;5046166;28;20037;-76
2022/01/19 13:28:35;;;;;;;44.95;21.75;;;6.40;99.90;;;;;;5046008;28;20033;-75
2022/01/19 13:31:11;;;;;;;48.45;21.02;;;6.10;99.90;;;;;;5043859;28;20056;-77
2022/01/19 13:33:37;;;;;;;42.78;21.65;;;6.80;99.90;;;;;;5045967;28;20053;-79
2022/01/19 13:36:05;;;;;;;50.63;22.33;;;6.10;99.90;;;;;;5045094;28;20057;-78
2022/01/19 13:38:30;;;;;;;43.55;20.55;;;6.10;99.90;;;;;;5045871;28;20053;-76
2022/01/19 13:41:08;;;;;;;47.38;20.80;;;6.40;99.90;;;;;;5046677;28;20053;-76
2022/01/19 13:43:36;;;;;;;43.22;19.30;;;6.00;99.90;;;;;;5045420;28;20071;-75
2022/01/19 13:46:12;;;;;;;47.65;21.52;;;6.00;99.90;;;;;;5046269;28;20041;-75
2022/01/19 13:48:40;;;;;;;49.38;21.25;;;6.00;99.90;;;;;;5046399;28;20052;-74
2022/01/19 13:51:10;;;;;;;47.10;21.40;;;6.00;99.90;;;;;;5046249;28;20045;-76
2022/01/19 13:53:42;;;;;;;50.58;21.50;;;6.00;99.90;;;;;;5046646;28;20396;-76
2022/01/19 13:56:10;;;;;;;45.97;20.70;;;6.00;99.90;;;;;;5043869;28;20044;-76
2022/01/19 13:58:43;;;;;;;45.25;20.15;;;6.00;99.90;;;;;;5046763;28;20041;-76
2022/01/19 14:01:13;;;;;;;;;;;5.90;99.90;;;;;;5028173;28;20377;-76
2022/01/19 14:03:53;;;;;;;38.70;17.55;;;7.40;99.90;;;;;;5044775;28;19920;-76
2022/01/19 14:06:42;;;;;;;37.95;17.55;;;5.90;99.90;;;;;;5028782;28;20118;-75
2022/01/19 14:09:14;;;;;;;42.53;17.23;;;5.90;99.90;;;;;;5043479;28;20126;-76
2022/01/19 14:11:43;;;;;;;41.97;17.13;;;5.90;99.90;;;;;;5045267;28;20053;-76
2022/01/19 14:14:12;;;;;;;38.00;16.17;;;5.90;99.90;;;;;;5044114;28;20072;-76
2022/01/19 14:16:45;;;;;;;30.95;14.52;;;5.80;99.90;;;;;;5044360;28;20084;-76